sensor_id;sensor_type;location;lat;lon;timestamp;temperature;humidity
16958;DHT22;8595;52.542;11.974;2023-11-22T00:01:51;2.40;99.90
16958;DHT22;8595;52.542;11.974;2023-11-22T00:04:18;2.40;99.90
16958;DHT22;8595;52.542;11.974;2023-11-22T00:06:45;2.40;99.90
16958;DHT22;8595;52.542;11.974;2023-11-22T00:09:12;2.40;99.90
16958;DHT22;8595;52.542;11.974;2023-11-22T00:11:39;2.40;99.90
16958;DHT22;8595;52.542;11.974;2023-11-22T00:14:06;2.30;99.90
16958;DHT22;8595;52.542;11.974;2023-11-22T00:16:33;2.40;99.90
16958;DHT22;8595;52.542;11.974;2023-11-22T00:19:04;2.40;99.90
16958;DHT22;8595;52.542;11.974;2023-11-22T00:21:31;2.40;99.90
16958;DHT22;8595;52.542;11.974;2023-11-22T00:23:58;2.50;99.90
16958;DHT22;8595;52.542;11.974;2023-11-22T00:26:25;2.50;99.90
16958;DHT22;8595;52.542;11.974;2023-11-22T00:32:13;2.50;99.90
16958;DHT22;8595;52.542;11.974;2023-11-22T00:34:41;2.40;99.90
16958;DHT22;8595;52.542;11.974;2023-11-22T00:37:08;2.40;99.90
16958;DHT22;8595;52.542;11.974;2023-11-22T00:39:34;2.50;99.90
16958;DHT22;8595;52.542;11.974;2023-11-22T00:42:01;2.60;99.90
16958;DHT22;8595;52.542;11.974;2023-11-22T00:44:29;2.60;99.90
16958;DHT22;8595;52.542;11.974;2023-11-22T00:46:55;2.60;99.90
16958;DHT22;8595;52.542;11.974;2023-11-22T00:49:22;2.60;99.90
16958;DHT22;8595;52.542;11.974;2023-11-22T00:51:50;2.60;99.90
16958;DHT22;8595;52.542;11.974;2023-11-22T00:54:17;2.50;99.90
16958;DHT22;8595;52.542;11.974;2023-11-22T00:56:45;2.60;99.90
16958;DHT22;8595;52.542;11.974;2023-11-22T00:59:12;2.70;99.90
16958;DHT22;8595;52.542;11.974;2023-11-22T01:01:39;2.70;99.90
16958;DHT22;8595;52.542;11.974;2023-11-22T01:04:06;2.70;99.90
16958;DHT22;8595;52.542;11.974;2023-11-22T01:06:33;2.70;99.90
16958;DHT22;8595;52.542;11.974;2023-11-22T01:09:01;2.70;99.90
16958;DHT22;8595;52.542;11.974;2023-11-22T01:11:28;2.70;99.90
16958;DHT22;8595;52.542;11.974;2023-11-22T01:13:54;2.60;99.90
16958;DHT22;8595;52.542;11.974;2023-11-22T01:16:22;2.60;99.90
16958;DHT22;8595;52.542;11.974;2023-11-22T01:18:48;2.60;99.90
16958;DHT22;8595;52.542;11.974;2023-11-22T01:21:15;2.50;99.90
16958;DHT22;8595;52.542;11.974;2023-11-22T01:23:42;2.50;99.90
16958;DHT22;8595;52.542;11.974;2023-11-22T01:26:12;2.40;99.90
16958;DHT22;8595;52.542;11.974;2023-11-22T01:28:39;2.30;99.90
16958;DHT22;8595;52.542;11.974;2023-11-22T01:31:11;2.30;99.90
16958;DHT22;8595;52.542;11.974;2023-11-22T01:33:38;2.30;99.90
16958;DHT22;8595;52.542;11.974;2023-11-22T01:36:05;2.30;99.90
16958;DHT22;8595;52.542;11.974;2023-11-22T01:38:32;2.40;99.90
16958;DHT22;8595;52.542;11.974;2023-11-22T01:40:59;2.30;99.90
16958;DHT22;8595;52.542;11.974;2023-11-22T01:43:28;2.30;99.90
16958;DHT22;8595;52.542;11.974;2023-11-22T01:45:55;2.40;99.90
16958;DHT22;8595;52.542;11.974;2023-11-22T01:48:22;2.20;99.90
16958;DHT22;8595;52.542;11.974;2023-11-22T01:50:49;2.20;99.90
16958;DHT22;8595;52.542;11.974;2023-11-22T01:53:16;2.10;99.90
16958;DHT22;8595;52.542;11.974;2023-11-22T01:55:43;2.10;99.90
16958;DHT22;8595;52.542;11.974;2023-11-22T01:58:11;2.10;99.90
16958;DHT22;8595;52.542;11.974;2023-11-22T02:00:45;2.10;99.90
16958;DHT22;8595;52.542;11.974;2023-11-22T02:03:13;2.10;99.90
16958;DHT22;8595;52.542;11.974;2023-11-22T02:05:40;2.10;99.90
16958;DHT22;8595;52.542;11.974;2023-11-22T02:08:09;2.10;99.90
16958;DHT22;8595;52.542;11.974;2023-11-22T02:10:35;2.10;99.90
16958;DHT22;8595;52.542;11.974;2023-11-22T02:13:03;2.00;99.90
16958;DHT22;8595;52.542;11.974;2023-11-22T02:15:30;1.90;99.90
16958;DHT22;8595;52.542;11.974;2023-11-22T02:17:58;1.80;99.90
16958;DHT22;8595;52.542;11.974;2023-11-22T02:20:25;1.90;99.90
16958;DHT22;8595;52.542;11.974;2023-11-22T02:22:52;1.70;99.90
16958;DHT22;8595;52.542;11.974;2023-11-22T02:25:21;1.70;99.90
16958;DHT22;8595;52.542;11.974;2023-11-22T02:27:47;1.70;99.90
16958;DHT22;8595;52.542;11.974;2023-11-22T02:30:14;1.60;99.90
16958;DHT22;8595;52.542;11.974;2023-11-22T02:32:41;1.60;99.90
16958;DHT22;8595;52.542;11.974;2023-11-22T02:35:09;1.60;99.90
16958;DHT22;8595;52.542;11.974;2023-11-22T02:37:35;1.60;99.90
16958;DHT22;8595;52.542;11.974;2023-11-22T02:40:05;1.70;99.90
16958;DHT22;8595;52.542;11.974;2023-11-22T02:42:34;1.70;99.90
16958;DHT22;8595;52.542;11.974;2023-11-22T02:45:01;1.70;99.90
16958;DHT22;8595;52.542;11.974;2023-11-22T02:47:28;1.70;99.90
16958;DHT22;8595;52.542;11.974;2023-11-22T02:49:55;1.60;99.90
16958;DHT22;8595;52.542;11.974;2023-11-22T02:52:22;1.60;99.90
16958;DHT22;8595;52.542;11.974;2023-11-22T02:54:52;1.60;99.90
16958;DHT22;8595;52.542;11.974;2023-11-22T02:57:18;1.60;99.90
16958;DHT22;8595;52.542;11.974;2023-11-22T02:59:46;1.60;99.90
16958;DHT22;8595;52.542;11.974;2023-11-22T03:02:13;1.50;99.90
16958;DHT22;8595;52.542;11.974;2023-11-22T03:04:42;1.60;99.90
16958;DHT22;8595;52.542;11.974;2023-11-22T03:07:09;1.50;99.90
16958;DHT22;8595;52.542;11.974;2023-11-22T03:09:35;1.60;99.90
16958;DHT22;8595;52.542;11.974;2023-11-22T03:12:03;1.40;99.90
16958;DHT22;8595;52.542;11.974;2023-11-22T03:14:30;1.40;99.90
16958;DHT22;8595;52.542;11.974;2023-11-22T03:16:58;1.40;99.90
16958;DHT22;8595;52.542;11.974;2023-11-22T03:19:25;1.40;99.90
16958;DHT22;8595;52.542;11.974;2023-11-22T03:21:51;1.40;99.90
16958;DHT22;8595;52.542;11.974;2023-11-22T03:24:18;1.40;99.90
16958;DHT22;8595;52.542;11.974;2023-11-22T03:26:45;1.40;99.90
16958;DHT22;8595;52.542;11.974;2023-11-22T03:29:11;1.30;99.90
16958;DHT22;8595;52.542;11.974;2023-11-22T03:31:41;1.40;99.90
16958;DHT22;8595;52.542;11.974;2023-11-22T03:34:10;1.40;99.90
16958;DHT22;8595;52.542;11.974;2023-11-22T03:36:36;1.40;99.90
16958;DHT22;8595;52.542;11.974;2023-11-22T03:39:04;1.40;99.90
16958;DHT22;8595;52.542;11.974;2023-11-22T03:41:30;1.30;99.90
16958;DHT22;8595;52.542;11.974;2023-11-22T03:43:57;1.40;99.90
16958;DHT22;8595;52.542;11.974;2023-11-22T03:46:24;1.30;99.90
16958;DHT22;8595;52.542;11.974;2023-11-22T03:48:50;1.30;99.90
16958;DHT22;8595;52.542;11.974;2023-11-22T03:51:18;1.30;99.90
16958;DHT22;8595;52.542;11.974;2023-11-22T03:53:45;1.40;99.90
16958;DHT22;8595;52.542;11.974;2023-11-22T03:56:12;1.30;99.90
16958;DHT22;8595;52.542;11.974;2023-11-22T03:58:40;1.20;99.90
16958;DHT22;8595;52.542;11.974;2023-11-22T04:01:06;1.20;99.90
16958;DHT22;8595;52.542;11.974;2023-11-22T04:03:33;1.20;99.90
16958;DHT22;8595;52.542;11.974;2023-11-22T04:06:00;1.20;99.90
16958;DHT22;8595;52.542;11.974;2023-11-22T04:08:28;1.10;99.90
16958;DHT22;8595;52.542;11.974;2023-11-22T04:10:55;1.10;99.90
16958;DHT22;8595;52.542;11.974;2023-11-22T04:13:21;1.10;99.90
16958;DHT22;8595;52.542;11.974;2023-11-22T04:15:50;1.20;99.90
16958;DHT22;8595;52.542;11.974;2023-11-22T04:18:17;1.20;99.90
16958;DHT22;8595;52.542;11.974;2023-11-22T04:20:43;1.20;99.90
16958;DHT22;8595;52.542;11.974;2023-11-22T04:23:11;1.20;99.90
16958;DHT22;8595;52.542;11.974;2023-11-22T04:25:41;1.20;99.90
16958;DHT22;8595;52.542;11.974;2023-11-22T04:28:09;1.20;99.90
16958;DHT22;8595;52.542;11.974;2023-11-22T04:30:36;1.10;99.90
16958;DHT22;8595;52.542;11.974;2023-11-22T04:33:03;1.20;99.90
16958;DHT22;8595;52.542;11.974;2023-11-22T04:35:30;1.30;99.90
16958;DHT22;8595;52.542;11.974;2023-11-22T04:37:59;1.30;99.90
16958;DHT22;8595;52.542;11.974;2023-11-22T04:40:26;1.20;99.90
16958;DHT22;8595;52.542;11.974;2023-11-22T04:42:54;1.20;99.90
16958;DHT22;8595;52.542;11.974;2023-11-22T04:45:20;1.20;99.90
16958;DHT22;8595;52.542;11.974;2023-11-22T04:47:47;1.10;99.90
16958;DHT22;8595;52.542;11.974;2023-11-22T04:50:14;1.10;99.90
16958;DHT22;8595;52.542;11.974;2023-11-22T04:52:41;1.10;99.90
16958;DHT22;8595;52.542;11.974;2023-11-22T04:55:08;1.00;99.90
16958;DHT22;8595;52.542;11.974;2023-11-22T04:57:35;1.10;99.90
16958;DHT22;8595;52.542;11.974;2023-11-22T05:00:04;0.90;99.90
16958;DHT22;8595;52.542;11.974;2023-11-22T05:02:33;0.90;99.90
16958;DHT22;8595;52.542;11.974;2023-11-22T05:04:59;0.80;99.90
16958;DHT22;8595;52.542;11.974;2023-11-22T05:07:26;0.80;99.90
16958;DHT22;8595;52.542;11.974;2023-11-22T05:09:53;0.70;99.90
16958;DHT22;8595;52.542;11.974;2023-11-22T05:12:20;0.50;99.90
16958;DHT22;8595;52.542;11.974;2023-11-22T05:14:46;0.40;99.90
16958;DHT22;8595;52.542;11.974;2023-11-22T05:17:14;0.30;99.90
16958;DHT22;8595;52.542;11.974;2023-11-22T05:19:41;0.20;99.90
16958;DHT22;8595;52.542;11.974;2023-11-22T05:22:08;0.20;99.90
16958;DHT22;8595;52.542;11.974;2023-11-22T05:24:34;0.10;99.90
16958;DHT22;8595;52.542;11.974;2023-11-22T05:27:04;0.10;99.90
16958;DHT22;8595;52.542;11.974;2023-11-22T05:29:31;0.00;99.90
16958;DHT22;8595;52.542;11.974;2023-11-22T05:31:58;0.10;99.90
16958;DHT22;8595;52.542;11.974;2023-11-22T05:34:26;0.10;99.90
16958;DHT22;8595;52.542;11.974;2023-11-22T05:36:52;0.20;99.90
16958;DHT22;8595;52.542;11.974;2023-11-22T05:39:20;0.20;99.90
16958;DHT22;8595;52.542;11.974;2023-11-22T05:41:47;0.40;99.90
16958;DHT22;8595;52.542;11.974;2023-11-22T05:44:14;0.40;99.90
16958;DHT22;8595;52.542;11.974;2023-11-22T05:46:41;0.30;99.90
16958;DHT22;8595;52.542;11.974;2023-11-22T05:49:08;0.50;99.90
16958;DHT22;8595;52.542;11.974;2023-11-22T05:51:37;0.60;99.90
16958;DHT22;8595;52.542;11.974;2023-11-22T05:54:04;0.60;99.90
16958;DHT22;8595;52.542;11.974;2023-11-22T05:56:32;0.60;99.90
16958;DHT22;8595;52.542;11.974;2023-11-22T05:58:58;0.60;99.90
16958;DHT22;8595;52.542;11.974;2023-11-22T06:01:25;0.70;99.90
16958;DHT22;8595;52.542;11.974;2023-11-22T06:03:53;0.80;99.90
16958;DHT22;8595;52.542;11.974;2023-11-22T06:06:20;0.80;99.90
16958;DHT22;8595;52.542;11.974;2023-11-22T06:08:48;0.80;99.90
16958;DHT22;8595;52.542;11.974;2023-11-22T06:11:15;0.70;99.90
16958;DHT22;8595;52.542;11.974;2023-11-22T06:13:42;0.70;99.90
16958;DHT22;8595;52.542;11.974;2023-11-22T06:16:09;0.60;99.90
16958;DHT22;8595;52.542;11.974;2023-11-22T06:18:36;0.60;99.90
16958;DHT22;8595;52.542;11.974;2023-11-22T06:21:05;0.50;99.90
16958;DHT22;8595;52.542;11.974;2023-11-22T06:23:32;0.40;99.90
16958;DHT22;8595;52.542;11.974;2023-11-22T06:26:00;0.40;99.90
16958;DHT22;8595;52.542;11.974;2023-11-22T06:28:27;0.50;99.90
16958;DHT22;8595;52.542;11.974;2023-11-22T06:30:54;0.60;99.90
16958;DHT22;8595;52.542;11.974;2023-11-22T06:33:21;0.60;99.90
16958;DHT22;8595;52.542;11.974;2023-11-22T06:35:48;0.80;99.90
16958;DHT22;8595;52.542;11.974;2023-11-22T06:38:15;0.80;99.90
16958;DHT22;8595;52.542;11.974;2023-11-22T06:40:42;0.80;99.90
16958;DHT22;8595;52.542;11.974;2023-11-22T06:43:10;0.70;99.90
16958;DHT22;8595;52.542;11.974;2023-11-22T06:45:37;0.70;99.90
16958;DHT22;8595;52.542;11.974;2023-11-22T06:48:05;0.80;99.90
16958;DHT22;8595;52.542;11.974;2023-11-22T06:50:32;0.70;99.90
16958;DHT22;8595;52.542;11.974;2023-11-22T06:52:58;0.70;99.90
16958;DHT22;8595;52.542;11.974;2023-11-22T06:55:25;0.80;99.90
16958;DHT22;8595;52.542;11.974;2023-11-22T06:57:53;0.70;99.90
16958;DHT22;8595;52.542;11.974;2023-11-22T07:00:21;0.60;99.90
16958;DHT22;8595;52.542;11.974;2023-11-22T07:02:48;0.50;99.90
16958;DHT22;8595;52.542;11.974;2023-11-22T07:05:15;0.40;99.90
16958;DHT22;8595;52.542;11.974;2023-11-22T07:07:42;0.40;99.90
16958;DHT22;8595;52.542;11.974;2023-11-22T07:10:09;0.50;99.90
16958;DHT22;8595;52.542;11.974;2023-11-22T07:12:37;0.50;99.90
16958;DHT22;8595;52.542;11.974;2023-11-22T07:15:06;0.50;99.90
16958;DHT22;8595;52.542;11.974;2023-11-22T07:17:36;0.50;99.90
16958;DHT22;8595;52.542;11.974;2023-11-22T07:20:05;0.60;99.90
16958;DHT22;8595;52.542;11.974;2023-11-22T07:22:34;0.60;99.90
16958;DHT22;8595;52.542;11.974;2023-11-22T07:25:02;0.60;99.90
16958;DHT22;8595;52.542;11.974;2023-11-22T07:27:29;0.80;99.90
16958;DHT22;8595;52.542;11.974;2023-11-22T07:29:57;1.20;99.90
16958;DHT22;8595;52.542;11.974;2023-11-22T07:32:24;1.40;99.90
16958;DHT22;8595;52.542;11.974;2023-11-22T07:34:52;1.30;99.90
16958;DHT22;8595;52.542;11.974;2023-11-22T07:37:21;1.30;99.90
16958;DHT22;8595;52.542;11.974;2023-11-22T07:39:49;1.40;99.90
16958;DHT22;8595;52.542;11.974;2023-11-22T07:42:16;1.30;99.90
16958;DHT22;8595;52.542;11.974;2023-11-22T07:44:43;1.40;99.90
16958;DHT22;8595;52.542;11.974;2023-11-22T07:47:10;1.40;99.90
16958;DHT22;8595;52.542;11.974;2023-11-22T07:49:38;1.40;99.90
16958;DHT22;8595;52.542;11.974;2023-11-22T07:52:08;1.40;99.90
16958;DHT22;8595;52.542;11.974;2023-11-22T07:54:39;1.40;99.90
16958;DHT22;8595;52.542;11.974;2023-11-22T07:57:06;1.40;99.90
16958;DHT22;8595;52.542;11.974;2023-11-22T07:59:33;1.40;99.90
16958;DHT22;8595;52.542;11.974;2023-11-22T08:01:59;1.50;99.90
16958;DHT22;8595;52.542;11.974;2023-11-22T08:04:27;1.40;99.90
16958;DHT22;8595;52.542;11.974;2023-11-22T08:06:57;1.40;99.90
16958;DHT22;8595;52.542;11.974;2023-11-22T08:09:25;1.40;99.90
16958;DHT22;8595;52.542;11.974;2023-11-22T08:11:56;1.40;99.90
16958;DHT22;8595;52.542;11.974;2023-11-22T08:14:23;1.60;99.90
16958;DHT22;8595;52.542;11.974;2023-11-22T08:16:53;1.70;99.90
16958;DHT22;8595;52.542;11.974;2023-11-22T08:19:20;1.80;99.90
16958;DHT22;8595;52.542;11.974;2023-11-22T08:21:47;1.90;99.90
16958;DHT22;8595;52.542;11.974;2023-11-22T08:24:14;1.90;99.90
16958;DHT22;8595;52.542;11.974;2023-11-22T08:26:42;1.90;99.90
16958;DHT22;8595;52.542;11.974;2023-11-22T08:29:09;2.10;99.90
16958;DHT22;8595;52.542;11.974;2023-11-22T08:31:36;2.30;99.90
16958;DHT22;8595;52.542;11.974;2023-11-22T08:34:03;2.20;99.90
16958;DHT22;8595;52.542;11.974;2023-11-22T08:36:32;2.10;99.90
16958;DHT22;8595;52.542;11.974;2023-11-22T08:38:59;2.20;99.90
16958;DHT22;8595;52.542;11.974;2023-11-22T08:41:27;2.40;99.90
16958;DHT22;8595;52.542;11.974;2023-11-22T08:43:56;3.10;99.90
16958;DHT22;8595;52.542;11.974;2023-11-22T08:46:23;3.80;99.90
16958;DHT22;8595;52.542;11.974;2023-11-22T08:48:50;4.70;99.90
16958;DHT22;8595;52.542;11.974;2023-11-22T08:51:17;4.90;99.90
16958;DHT22;8595;52.542;11.974;2023-11-22T08:53:44;5.30;99.90
16958;DHT22;8595;52.542;11.974;2023-11-22T08:56:11;5.90;99.90
16958;DHT22;8595;52.542;11.974;2023-11-22T08:58:37;6.50;99.90
16958;DHT22;8595;52.542;11.974;2023-11-22T09:01:06;7.10;99.90
16958;DHT22;8595;52.542;11.974;2023-11-22T09:03:33;7.60;99.90
16958;DHT22;8595;52.542;11.974;2023-11-22T09:06:00;7.70;99.90
16958;DHT22;8595;52.542;11.974;2023-11-22T09:08:28;8.20;99.90
16958;DHT22;8595;52.542;11.974;2023-11-22T09:10:55;8.40;99.90
16958;DHT22;8595;52.542;11.974;2023-11-22T09:13:22;8.20;99.90
16958;DHT22;8595;52.542;11.974;2023-11-22T09:15:50;8.10;99.90
16958;DHT22;8595;52.542;11.974;2023-11-22T09:18:18;8.90;99.90
16958;DHT22;8595;52.542;11.974;2023-11-22T09:20:45;9.20;99.90
16958;DHT22;8595;52.542;11.974;2023-11-22T09:23:11;9.10;99.90
16958;DHT22;8595;52.542;11.974;2023-11-22T09:25:39;9.20;99.90
16958;DHT22;8595;52.542;11.974;2023-11-22T09:28:06;9.20;99.90
16958;DHT22;8595;52.542;11.974;2023-11-22T09:30:35;8.90;99.90
16958;DHT22;8595;52.542;11.974;2023-11-22T09:33:33;8.80;99.90
16958;DHT22;8595;52.542;11.974;2023-11-22T09:36:00;8.50;99.90
16958;DHT22;8595;52.542;11.974;2023-11-22T09:38:29;8.10;99.90
16958;DHT22;8595;52.542;11.974;2023-11-22T09:40:56;7.80;99.90
16958;DHT22;8595;52.542;11.974;2023-11-22T09:43:25;7.70;99.90
16958;DHT22;8595;52.542;11.974;2023-11-22T09:45:54;7.40;99.90
16958;DHT22;8595;52.542;11.974;2023-11-22T09:48:23;7.30;99.90
16958;DHT22;8595;52.542;11.974;2023-11-22T09:51:00;7.10;99.90
16958;DHT22;8595;52.542;11.974;2023-11-22T09:53:32;7.00;99.90
16958;DHT22;8595;52.542;11.974;2023-11-22T09:56:00;6.90;99.90
16958;DHT22;8595;52.542;11.974;2023-11-22T09:58:30;7.00;99.90
16958;DHT22;8595;52.542;11.974;2023-11-22T10:00:59;7.30;99.90
16958;DHT22;8595;52.542;11.974;2023-11-22T10:03:26;7.20;99.90
16958;DHT22;8595;52.542;11.974;2023-11-22T10:05:55;7.40;99.90
16958;DHT22;8595;52.542;11.974;2023-11-22T10:08:23;7.60;99.90
16958;DHT22;8595;52.542;11.974;2023-11-22T10:10:50;7.70;99.90
16958;DHT22;8595;52.542;11.974;2023-11-22T10:13:20;7.80;99.90
16958;DHT22;8595;52.542;11.974;2023-11-22T10:15:48;8.30;99.90
16958;DHT22;8595;52.542;11.974;2023-11-22T10:18:15;8.70;99.90
16958;DHT22;8595;52.542;11.974;2023-11-22T10:20:44;8.90;99.90
16958;DHT22;8595;52.542;11.974;2023-11-22T10:23:14;8.50;99.90
16958;DHT22;8595;52.542;11.974;2023-11-22T10:25:44;8.10;99.90
16958;DHT22;8595;52.542;11.974;2023-11-22T10:28:13;7.70;99.90
16958;DHT22;8595;52.542;11.974;2023-11-22T10:30:40;7.60;99.90
16958;DHT22;8595;52.542;11.974;2023-11-22T10:33:09;7.10;99.90
16958;DHT22;8595;52.542;11.974;2023-11-22T10:35:39;7.00;99.90
16958;DHT22;8595;52.542;11.974;2023-11-22T10:38:08;6.90;99.90
16958;DHT22;8595;52.542;11.974;2023-11-22T10:40:37;7.00;99.90
16958;DHT22;8595;52.542;11.974;2023-11-22T10:43:05;7.10;99.90
16958;DHT22;8595;52.542;11.974;2023-11-22T10:45:34;7.10;99.90
16958;DHT22;8595;52.542;11.974;2023-11-22T10:48:03;7.20;99.90
16958;DHT22;8595;52.542;11.974;2023-11-22T10:50:30;7.30;99.90
16958;DHT22;8595;52.542;11.974;2023-11-22T10:52:58;7.40;99.90
16958;DHT22;8595;52.542;11.974;2023-11-22T10:55:27;7.50;99.90
16958;DHT22;8595;52.542;11.974;2023-11-22T10:58:01;7.80;99.90
16958;DHT22;8595;52.542;11.974;2023-11-22T11:00:29;8.20;99.90
16958;DHT22;8595;52.542;11.974;2023-11-22T11:02:59;8.60;99.90
16958;DHT22;8595;52.542;11.974;2023-11-22T11:05:29;8.60;99.90
16958;DHT22;8595;52.542;11.974;2023-11-22T11:08:00;8.70;99.90
16958;DHT22;8595;52.542;11.974;2023-11-22T11:10:28;9.10;99.90
16958;DHT22;8595;52.542;11.974;2023-11-22T11:12:58;9.40;99.90
16958;DHT22;8595;52.542;11.974;2023-11-22T11:15:26;9.70;99.90
16958;DHT22;8595;52.542;11.974;2023-11-22T11:17:53;9.80;99.90
16958;DHT22;8595;52.542;11.974;2023-11-22T11:20:22;9.90;99.90
16958;DHT22;8595;52.542;11.974;2023-11-22T11:22:49;9.40;99.90
16958;DHT22;8595;52.542;11.974;2023-11-22T11:25:18;9.30;99.90
16958;DHT22;8595;52.542;11.974;2023-11-22T11:27:55;9.30;99.90
16958;DHT22;8595;52.542;11.974;2023-11-22T11:30:41;9.30;99.90
16958;DHT22;8595;52.542;11.974;2023-11-22T11:33:12;9.40;99.90
16958;DHT22;8595;52.542;11.974;2023-11-22T11:35:42;9.60;99.90
16958;DHT22;8595;52.542;11.974;2023-11-22T11:38:13;9.60;99.90
16958;DHT22;8595;52.542;11.974;2023-11-22T11:40:41;10.10;99.90
16958;DHT22;8595;52.542;11.974;2023-11-22T11:43:10;9.90;99.90
16958;DHT22;8595;52.542;11.974;2023-11-22T11:45:38;9.90;99.90
16958;DHT22;8595;52.542;11.974;2023-11-22T11:48:07;10.00;99.90
16958;DHT22;8595;52.542;11.974;2023-11-22T11:50:35;10.00;99.90
16958;DHT22;8595;52.542;11.974;2023-11-22T11:53:02;9.80;99.90
16958;DHT22;8595;52.542;11.974;2023-11-22T11:55:30;9.30;99.90
16958;DHT22;8595;52.542;11.974;2023-11-22T11:57:57;9.70;99.90
16958;DHT22;8595;52.542;11.974;2023-11-22T12:00:25;9.70;99.90
16958;DHT22;8595;52.542;11.974;2023-11-22T12:02:53;9.70;99.90
16958;DHT22;8595;52.542;11.974;2023-11-22T12:05:22;9.30;99.90
16958;DHT22;8595;52.542;11.974;2023-11-22T12:07:50;9.40;99.90
16958;DHT22;8595;52.542;11.974;2023-11-22T12:10:17;9.20;99.90
16958;DHT22;8595;52.542;11.974;2023-11-22T12:12:45;9.20;99.90
16958;DHT22;8595;52.542;11.974;2023-11-22T12:15:12;9.60;99.90
16958;DHT22;8595;52.542;11.974;2023-11-22T12:17:40;10.00;99.90
16958;DHT22;8595;52.542;11.974;2023-11-22T12:20:11;10.20;99.90
16958;DHT22;8595;52.542;11.974;2023-11-22T12:22:40;10.00;99.90
16958;DHT22;8595;52.542;11.974;2023-11-22T12:25:08;9.00;99.90
16958;DHT22;8595;52.542;11.974;2023-11-22T12:27:39;8.60;99.90
16958;DHT22;8595;52.542;11.974;2023-11-22T12:30:07;8.30;99.90
16958;DHT22;8595;52.542;11.974;2023-11-22T12:32:38;8.10;99.90
16958;DHT22;8595;52.542;11.974;2023-11-22T12:35:06;7.80;99.90
16958;DHT22;8595;52.542;11.974;2023-11-22T12:37:34;7.60;99.90
16958;DHT22;8595;52.542;11.974;2023-11-22T12:40:09;7.20;99.90
16958;DHT22;8595;52.542;11.974;2023-11-22T12:42:47;7.30;99.90
16958;DHT22;8595;52.542;11.974;2023-11-22T12:45:19;7.00;99.90
16958;DHT22;8595;52.542;11.974;2023-11-22T12:47:46;6.70;99.90
16958;DHT22;8595;52.542;11.974;2023-11-22T12:50:31;6.60;99.90
16958;DHT22;8595;52.542;11.974;2023-11-22T12:52:58;6.80;99.90
16958;DHT22;8595;52.542;11.974;2023-11-22T12:55:27;6.70;99.90
16958;DHT22;8595;52.542;11.974;2023-11-22T12:57:57;6.60;99.90
16958;DHT22;8595;52.542;11.974;2023-11-22T13:00:25;6.50;99.90
16958;DHT22;8595;52.542;11.974;2023-11-22T13:02:54;6.30;99.90
16958;DHT22;8595;52.542;11.974;2023-11-22T13:05:22;6.30;99.90
16958;DHT22;8595;52.542;11.974;2023-11-22T13:07:49;6.10;99.90
16958;DHT22;8595;52.542;11.974;2023-11-22T13:10:18;6.00;99.90
16958;DHT22;8595;52.542;11.974;2023-11-22T13:12:52;5.90;99.90
16958;DHT22;8595;52.542;11.974;2023-11-22T13:15:20;5.70;99.90
16958;DHT22;8595;52.542;11.974;2023-11-22T13:17:49;5.10;99.90
16958;DHT22;8595;52.542;11.974;2023-11-22T13:20:16;4.70;99.90
16958;DHT22;8595;52.542;11.974;2023-11-22T13:22:46;4.40;99.90
16958;DHT22;8595;52.542;11.974;2023-11-22T13:25:13;4.40;99.90
16958;DHT22;8595;52.542;11.974;2023-11-22T13:27:40;4.60;99.90
16958;DHT22;8595;52.542;11.974;2023-11-22T13:30:09;4.60;99.90
16958;DHT22;8595;52.542;11.974;2023-11-22T13:32:36;4.60;99.90
16958;DHT22;8595;52.542;11.974;2023-11-22T13:35:06;4.60;99.90
16958;DHT22;8595;52.542;11.974;2023-11-22T13:37:41;4.50;99.90
16958;DHT22;8595;52.542;11.974;2023-11-22T13:40:10;4.60;99.90
16958;DHT22;8595;52.542;11.974;2023-11-22T13:42:41;4.60;99.90
16958;DHT22;8595;52.542;11.974;2023-11-22T13:45:10;4.40;99.90
16958;DHT22;8595;52.542;11.974;2023-11-22T13:47:41;4.30;99.90
16958;DHT22;8595;52.542;11.974;2023-11-22T13:50:09;4.20;99.90
16958;DHT22;8595;52.542;11.974;2023-11-22T13:52:36;4.20;99.90
16958;DHT22;8595;52.542;11.974;2023-11-22T13:55:04;3.90;99.90
16958;DHT22;8595;52.542;11.974;2023-11-22T13:57:35;3.90;99.90
16958;DHT22;8595;52.542;11.974;2023-11-22T14:00:02;3.90;99.90
16958;DHT22;8595;52.542;11.974;2023-11-22T14:02:34;3.70;99.90
16958;DHT22;8595;52.542;11.974;2023-11-22T14:05:00;3.50;99.90
16958;DHT22;8595;52.542;11.974;2023-11-22T14:07:28;3.50;99.90
16958;DHT22;8595;52.542;11.974;2023-11-22T14:09:55;3.50;99.90
16958;DHT22;8595;52.542;11.974;2023-11-22T14:12:22;3.50;99.90
16958;DHT22;8595;52.542;11.974;2023-11-22T14:14:49;3.40;99.90
16958;DHT22;8595;52.542;11.974;2023-11-22T14:17:17;3.40;99.90
16958;DHT22;8595;52.542;11.974;2023-11-22T14:19:47;3.40;99.90
16958;DHT22;8595;52.542;11.974;2023-11-22T14:22:14;3.40;99.90
16958;DHT22;8595;52.542;11.974;2023-11-22T14:24:42;3.40;99.90
16958;DHT22;8595;52.542;11.974;2023-11-22T14:27:10;3.40;99.90
16958;DHT22;8595;52.542;11.974;2023-11-22T14:29:37;3.30;99.90
16958;DHT22;8595;52.542;11.974;2023-11-22T14:32:04;3.40;99.90
16958;DHT22;8595;52.542;11.974;2023-11-22T14:34:32;3.40;99.90
16958;DHT22;8595;52.542;11.974;2023-11-22T14:37:00;3.40;99.90
16958;DHT22;8595;52.542;11.974;2023-11-22T14:39:27;3.40;99.90
16958;DHT22;8595;52.542;11.974;2023-11-22T14:41:55;3.40;99.90
16958;DHT22;8595;52.542;11.974;2023-11-22T14:44:22;3.30;99.90
16958;DHT22;8595;52.542;11.974;2023-11-22T14:46:48;3.20;99.90
16958;DHT22;8595;52.542;11.974;2023-11-22T14:49:15;3.10;99.90
16958;DHT22;8595;52.542;11.974;2023-11-22T14:51:42;3.20;99.90
16958;DHT22;8595;52.542;11.974;2023-11-22T14:54:10;3.00;99.90
16958;DHT22;8595;52.542;11.974;2023-11-22T14:56:37;3.00;99.90
16958;DHT22;8595;52.542;11.974;2023-11-22T14:59:05;2.80;99.90
16958;DHT22;8595;52.542;11.974;2023-11-22T15:01:32;2.80;99.90
16958;DHT22;8595;52.542;11.974;2023-11-22T15:03:59;2.80;99.90
16958;DHT22;8595;52.542;11.974;2023-11-22T15:06:25;2.90;99.90
16958;DHT22;8595;52.542;11.974;2023-11-22T15:08:52;2.80;99.90
16958;DHT22;8595;52.542;11.974;2023-11-22T15:11:20;2.90;99.90
16958;DHT22;8595;52.542;11.974;2023-11-22T15:13:47;2.80;99.90
16958;DHT22;8595;52.542;11.974;2023-11-22T15:16:14;2.80;99.90
16958;DHT22;8595;52.542;11.974;2023-11-22T15:18:41;2.80;99.90
16958;DHT22;8595;52.542;11.974;2023-11-22T15:21:08;2.70;99.90
16958;DHT22;8595;52.542;11.974;2023-11-22T15:23:35;2.70;99.90
16958;DHT22;8595;52.542;11.974;2023-11-22T15:26:02;2.70;99.90
16958;DHT22;8595;52.542;11.974;2023-11-22T15:28:31;2.70;99.90
16958;DHT22;8595;52.542;11.974;2023-11-22T15:30:57;2.70;99.90
16958;DHT22;8595;52.542;11.974;2023-11-22T15:33:26;2.70;99.90
16958;DHT22;8595;52.542;11.974;2023-11-22T15:35:53;2.70;99.90
16958;DHT22;8595;52.542;11.974;2023-11-22T15:38:20;2.70;99.90
16958;DHT22;8595;52.542;11.974;2023-11-22T15:40:48;2.70;99.90
16958;DHT22;8595;52.542;11.974;2023-11-22T15:43:14;2.70;99.90
16958;DHT22;8595;52.542;11.974;2023-11-22T15:45:43;2.70;99.90
16958;DHT22;8595;52.542;11.974;2023-11-22T15:48:10;2.70;99.90
16958;DHT22;8595;52.542;11.974;2023-11-22T15:50:38;2.80;99.90
16958;DHT22;8595;52.542;11.974;2023-11-22T15:53:05;2.80;99.90